sensor_id;sensor_type;location;lat;lon;timestamp;temperature;humidity
20881;DHT22;10600;53.096;8.802;2023-04-25T00:00:20;7.00;99.90
20881;DHT22;10600;53.096;8.802;2023-04-25T00:01:21;7.00;99.90
20881;DHT22;10600;53.096;8.802;2023-04-25T00:02:25;7.00;99.90
20881;DHT22;10600;53.096;8.802;2023-04-25T00:03:25;7.00;99.90
20881;DHT22;10600;53.096;8.802;2023-04-25T00:04:27;7.00;99.90
20881;DHT22;10600;53.096;8.802;2023-04-25T00:05:28;7.00;99.90
20881;DHT22;10600;53.096;8.802;2023-04-25T00:06:29;7.00;99.90
20881;DHT22;10600;53.096;8.802;2023-04-25T00:07:32;7.00;99.90
20881;DHT22;10600;53.096;8.802;2023-04-25T00:08:32;7.00;99.90
20881;DHT22;10600;53.096;8.802;2023-04-25T00:09:33;6.90;99.90
20881;DHT22;10600;53.096;8.802;2023-04-25T00:10:34;6.90;99.90
20881;DHT22;10600;53.096;8.802;2023-04-25T00:11:35;6.90;99.90
20881;DHT22;10600;53.096;8.802;2023-04-25T00:12:35;6.90;99.90
20881;DHT22;10600;53.096;8.802;2023-04-25T00:13:36;6.90;99.90
20881;DHT22;10600;53.096;8.802;2023-04-25T00:14:37;6.90;99.90
20881;DHT22;10600;53.096;8.802;2023-04-25T00:15:38;6.90;99.90
20881;DHT22;10600;53.096;8.802;2023-04-25T00:16:39;6.90;99.90
20881;DHT22;10600;53.096;8.802;2023-04-25T00:17:41;6.90;99.90
20881;DHT22;10600;53.096;8.802;2023-04-25T00:18:42;6.90;99.90
20881;DHT22;10600;53.096;8.802;2023-04-25T00:19:43;6.90;99.90
20881;DHT22;10600;53.096;8.802;2023-04-25T00:20:46;6.90;99.90
20881;DHT22;10600;53.096;8.802;2023-04-25T00:21:47;6.90;99.90
20881;DHT22;10600;53.096;8.802;2023-04-25T00:22:48;6.80;99.90
20881;DHT22;10600;53.096;8.802;2023-04-25T00:23:48;6.80;99.90
20881;DHT22;10600;53.096;8.802;2023-04-25T00:24:49;6.80;99.90
20881;DHT22;10600;53.096;8.802;2023-04-25T00:25:50;6.80;99.90
20881;DHT22;10600;53.096;8.802;2023-04-25T00:26:51;6.80;99.90
20881;DHT22;10600;53.096;8.802;2023-04-25T00:27:51;6.80;99.90
20881;DHT22;10600;53.096;8.802;2023-04-25T00:28:52;6.80;99.90
20881;DHT22;10600;53.096;8.802;2023-04-25T00:29:53;6.80;99.90
20881;DHT22;10600;53.096;8.802;2023-04-25T00:30:53;6.80;99.90
20881;DHT22;10600;53.096;8.802;2023-04-25T00:31:54;6.80;99.90
20881;DHT22;10600;53.096;8.802;2023-04-25T00:32:55;6.80;99.90
20881;DHT22;10600;53.096;8.802;2023-04-25T00:33:56;6.80;99.90
20881;DHT22;10600;53.096;8.802;2023-04-25T00:34:56;6.80;99.90
20881;DHT22;10600;53.096;8.802;2023-04-25T00:35:58;6.80;99.90
20881;DHT22;10600;53.096;8.802;2023-04-25T00:37:00;6.90;99.90
20881;DHT22;10600;53.096;8.802;2023-04-25T00:38:02;6.90;99.90
20881;DHT22;10600;53.096;8.802;2023-04-25T00:39:03;7.00;99.90
20881;DHT22;10600;53.096;8.802;2023-04-25T00:40:05;7.00;99.90
20881;DHT22;10600;53.096;8.802;2023-04-25T00:41:07;7.10;99.90
20881;DHT22;10600;53.096;8.802;2023-04-25T00:42:08;7.10;99.90
20881;DHT22;10600;53.096;8.802;2023-04-25T00:43:08;7.10;99.90
20881;DHT22;10600;53.096;8.802;2023-04-25T00:44:10;7.10;99.90
20881;DHT22;10600;53.096;8.802;2023-04-25T00:45:13;7.10;99.90
20881;DHT22;10600;53.096;8.802;2023-04-25T00:46:17;7.20;99.90
20881;DHT22;10600;53.096;8.802;2023-04-25T00:47:17;7.20;99.90
20881;DHT22;10600;53.096;8.802;2023-04-25T00:48:20;7.20;99.90
20881;DHT22;10600;53.096;8.802;2023-04-25T00:49:22;7.20;99.90
20881;DHT22;10600;53.096;8.802;2023-04-25T00:50:23;7.20;99.90
20881;DHT22;10600;53.096;8.802;2023-04-25T00:51:24;7.20;99.90
20881;DHT22;10600;53.096;8.802;2023-04-25T00:52:25;7.20;99.90
20881;DHT22;10600;53.096;8.802;2023-04-25T00:53:27;7.20;99.90
20881;DHT22;10600;53.096;8.802;2023-04-25T00:54:28;7.10;99.90
20881;DHT22;10600;53.096;8.802;2023-04-25T00:55:30;7.20;99.90
20881;DHT22;10600;53.096;8.802;2023-04-25T00:56:31;7.20;99.90
20881;DHT22;10600;53.096;8.802;2023-04-25T00:57:32;7.20;99.90
20881;DHT22;10600;53.096;8.802;2023-04-25T00:58:33;7.20;99.90
20881;DHT22;10600;53.096;8.802;2023-04-25T00:59:34;7.20;99.90
20881;DHT22;10600;53.096;8.802;2023-04-25T01:00:36;7.20;99.90
20881;DHT22;10600;53.096;8.802;2023-04-25T01:01:38;7.20;99.90
20881;DHT22;10600;53.096;8.802;2023-04-25T01:02:40;7.20;99.90
20881;DHT22;10600;53.096;8.802;2023-04-25T01:03:41;7.20;99.90
20881;DHT22;10600;53.096;8.802;2023-04-25T01:04:42;7.20;99.90
20881;DHT22;10600;53.096;8.802;2023-04-25T01:05:43;7.20;99.90
20881;DHT22;10600;53.096;8.802;2023-04-25T01:06:44;7.20;99.90
20881;DHT22;10600;53.096;8.802;2023-04-25T01:07:45;7.20;99.90
20881;DHT22;10600;53.096;8.802;2023-04-25T01:08:47;7.20;99.90
20881;DHT22;10600;53.096;8.802;2023-04-25T01:09:48;7.10;99.90
20881;DHT22;10600;53.096;8.802;2023-04-25T01:10:48;7.10;99.90
20881;DHT22;10600;53.096;8.802;2023-04-25T01:11:49;7.10;99.90
20881;DHT22;10600;53.096;8.802;2023-04-25T01:12:50;7.10;99.90
20881;DHT22;10600;53.096;8.802;2023-04-25T01:13:51;7.10;99.90
20881;DHT22;10600;53.096;8.802;2023-04-25T01:14:51;7.10;99.90
20881;DHT22;10600;53.096;8.802;2023-04-25T01:15:52;7.10;99.90
20881;DHT22;10600;53.096;8.802;2023-04-25T01:16:53;7.10;99.90
20881;DHT22;10600;53.096;8.802;2023-04-25T01:17:54;7.10;99.90
20881;DHT22;10600;53.096;8.802;2023-04-25T01:18:55;7.10;99.90
20881;DHT22;10600;53.096;8.802;2023-04-25T01:19:56;7.10;99.90
20881;DHT22;10600;53.096;8.802;2023-04-25T01:21:09;7.10;99.90
20881;DHT22;10600;53.096;8.802;2023-04-25T01:22:10;7.00;99.90
20881;DHT22;10600;53.096;8.802;2023-04-25T01:23:11;7.00;99.90
20881;DHT22;10600;53.096;8.802;2023-04-25T01:24:13;7.00;99.90
20881;DHT22;10600;53.096;8.802;2023-04-25T01:25:14;7.00;99.90
20881;DHT22;10600;53.096;8.802;2023-04-25T01:26:15;7.00;99.90
20881;DHT22;10600;53.096;8.802;2023-04-25T01:27:16;7.00;99.90
20881;DHT22;10600;53.096;8.802;2023-04-25T01:28:18;7.00;99.90
20881;DHT22;10600;53.096;8.802;2023-04-25T01:29:20;7.00;99.90
20881;DHT22;10600;53.096;8.802;2023-04-25T01:30:21;6.90;99.90
20881;DHT22;10600;53.096;8.802;2023-04-25T01:31:21;7.00;99.90
20881;DHT22;10600;53.096;8.802;2023-04-25T01:32:23;6.90;99.90
20881;DHT22;10600;53.096;8.802;2023-04-25T01:33:24;6.90;99.90
20881;DHT22;10600;53.096;8.802;2023-04-25T01:34:25;6.90;99.90
20881;DHT22;10600;53.096;8.802;2023-04-25T01:35:25;6.80;99.90
20881;DHT22;10600;53.096;8.802;2023-04-25T01:36:26;6.80;99.90
20881;DHT22;10600;53.096;8.802;2023-04-25T01:37:27;6.80;99.90
20881;DHT22;10600;53.096;8.802;2023-04-25T01:38:28;6.80;99.90
20881;DHT22;10600;53.096;8.802;2023-04-25T01:39:29;6.80;99.90
20881;DHT22;10600;53.096;8.802;2023-04-25T01:40:30;6.70;99.90
20881;DHT22;10600;53.096;8.802;2023-04-25T01:41:32;6.70;99.90
20881;DHT22;10600;53.096;8.802;2023-04-25T01:42:34;6.70;99.90
20881;DHT22;10600;53.096;8.802;2023-04-25T01:43:35;6.70;99.90
20881;DHT22;10600;53.096;8.802;2023-04-25T01:44:36;6.80;99.90
20881;DHT22;10600;53.096;8.802;2023-04-25T01:45:38;6.80;99.90
20881;DHT22;10600;53.096;8.802;2023-04-25T01:46:41;6.80;99.90
20881;DHT22;10600;53.096;8.802;2023-04-25T01:47:42;6.80;99.90
20881;DHT22;10600;53.096;8.802;2023-04-25T01:48:44;6.80;99.90
20881;DHT22;10600;53.096;8.802;2023-04-25T01:49:44;6.80;99.90
20881;DHT22;10600;53.096;8.802;2023-04-25T01:50:45;6.80;99.90
20881;DHT22;10600;53.096;8.802;2023-04-25T01:51:46;6.80;99.90
20881;DHT22;10600;53.096;8.802;2023-04-25T01:52:47;6.80;99.90
20881;DHT22;10600;53.096;8.802;2023-04-25T01:53:47;6.80;99.90
20881;DHT22;10600;53.096;8.802;2023-04-25T01:54:49;6.80;99.90
20881;DHT22;10600;53.096;8.802;2023-04-25T01:55:51;6.80;99.90
20881;DHT22;10600;53.096;8.802;2023-04-25T01:56:51;6.80;99.90
20881;DHT22;10600;53.096;8.802;2023-04-25T01:57:52;6.80;99.90
20881;DHT22;10600;53.096;8.802;2023-04-25T01:58:53;6.80;99.90
20881;DHT22;10600;53.096;8.802;2023-04-25T01:59:58;6.80;99.90
20881;DHT22;10600;53.096;8.802;2023-04-25T02:01:00;6.80;99.90
20881;DHT22;10600;53.096;8.802;2023-04-25T02:02:00;6.80;99.90
20881;DHT22;10600;53.096;8.802;2023-04-25T02:03:04;6.80;99.90
20881;DHT22;10600;53.096;8.802;2023-04-25T02:04:05;6.80;99.90
20881;DHT22;10600;53.096;8.802;2023-04-25T02:05:06;6.80;99.90
20881;DHT22;10600;53.096;8.802;2023-04-25T02:06:07;6.80;99.90
20881;DHT22;10600;53.096;8.802;2023-04-25T02:07:07;6.80;99.90
20881;DHT22;10600;53.096;8.802;2023-04-25T02:08:08;6.80;99.90
20881;DHT22;10600;53.096;8.802;2023-04-25T02:09:09;6.80;99.90
20881;DHT22;10600;53.096;8.802;2023-04-25T02:10:10;6.70;99.90
20881;DHT22;10600;53.096;8.802;2023-04-25T02:11:11;6.70;99.90
20881;DHT22;10600;53.096;8.802;2023-04-25T02:12:11;6.70;99.90
20881;DHT22;10600;53.096;8.802;2023-04-25T02:13:12;6.70;99.90
20881;DHT22;10600;53.096;8.802;2023-04-25T02:14:13;6.70;99.90
20881;DHT22;10600;53.096;8.802;2023-04-25T02:15:13;6.70;99.90
20881;DHT22;10600;53.096;8.802;2023-04-25T02:16:14;6.70;99.90
20881;DHT22;10600;53.096;8.802;2023-04-25T02:17:15;6.70;99.90
20881;DHT22;10600;53.096;8.802;2023-04-25T02:18:16;6.60;99.90
20881;DHT22;10600;53.096;8.802;2023-04-25T02:19:17;6.60;99.90
20881;DHT22;10600;53.096;8.802;2023-04-25T02:20:18;6.60;99.90
20881;DHT22;10600;53.096;8.802;2023-04-25T02:21:20;6.60;99.90
20881;DHT22;10600;53.096;8.802;2023-04-25T02:22:20;6.60;99.90
20881;DHT22;10600;53.096;8.802;2023-04-25T02:23:21;6.60;99.90
20881;DHT22;10600;53.096;8.802;2023-04-25T02:24:22;6.50;99.90
20881;DHT22;10600;53.096;8.802;2023-04-25T02:25:23;6.50;99.90
20881;DHT22;10600;53.096;8.802;2023-04-25T02:26:23;6.50;99.90
20881;DHT22;10600;53.096;8.802;2023-04-25T02:27:24;6.50;99.90
20881;DHT22;10600;53.096;8.802;2023-04-25T02:28:25;6.50;99.90
20881;DHT22;10600;53.096;8.802;2023-04-25T02:29:29;6.50;99.90
20881;DHT22;10600;53.096;8.802;2023-04-25T02:30:30;6.40;99.90
20881;DHT22;10600;53.096;8.802;2023-04-25T02:31:30;6.40;99.90
20881;DHT22;10600;53.096;8.802;2023-04-25T02:32:31;6.40;99.90
20881;DHT22;10600;53.096;8.802;2023-04-25T02:33:32;6.40;99.90
20881;DHT22;10600;53.096;8.802;2023-04-25T02:34:32;6.40;99.90
20881;DHT22;10600;53.096;8.802;2023-04-25T02:35:33;6.40;99.90
20881;DHT22;10600;53.096;8.802;2023-04-25T02:36:33;6.40;99.90
20881;DHT22;10600;53.096;8.802;2023-04-25T02:37:37;6.40;99.90
20881;DHT22;10600;53.096;8.802;2023-04-25T02:38:38;6.40;99.90
20881;DHT22;10600;53.096;8.802;2023-04-25T02:39:39;6.40;99.90
20881;DHT22;10600;53.096;8.802;2023-04-25T02:40:40;6.40;99.90
20881;DHT22;10600;53.096;8.802;2023-04-25T02:41:41;6.40;99.90
20881;DHT22;10600;53.096;8.802;2023-04-25T02:42:41;6.40;99.90
20881;DHT22;10600;53.096;8.802;2023-04-25T02:43:42;6.40;99.90
20881;DHT22;10600;53.096;8.802;2023-04-25T02:44:42;6.40;99.90
20881;DHT22;10600;53.096;8.802;2023-04-25T02:45:43;6.40;99.90
20881;DHT22;10600;53.096;8.802;2023-04-25T02:46:43;6.30;99.90
20881;DHT22;10600;53.096;8.802;2023-04-25T02:47:44;6.30;99.90
20881;DHT22;10600;53.096;8.802;2023-04-25T02:48:45;6.30;99.90
20881;DHT22;10600;53.096;8.802;2023-04-25T02:49:45;6.30;99.90
20881;DHT22;10600;53.096;8.802;2023-04-25T02:50:46;6.30;99.90
20881;DHT22;10600;53.096;8.802;2023-04-25T02:51:47;6.30;99.90
20881;DHT22;10600;53.096;8.802;2023-04-25T02:52:47;6.30;99.90
20881;DHT22;10600;53.096;8.802;2023-04-25T02:53:48;6.20;99.90
20881;DHT22;10600;53.096;8.802;2023-04-25T02:54:48;6.20;99.90
20881;DHT22;10600;53.096;8.802;2023-04-25T02:55:49;6.20;99.90
20881;DHT22;10600;53.096;8.802;2023-04-25T02:56:50;6.20;99.90
20881;DHT22;10600;53.096;8.802;2023-04-25T02:57:50;6.20;99.90
20881;DHT22;10600;53.096;8.802;2023-04-25T02:58:51;6.20;99.90
20881;DHT22;10600;53.096;8.802;2023-04-25T02:59:52;6.20;99.90
20881;DHT22;10600;53.096;8.802;2023-04-25T03:00:53;6.20;99.90
20881;DHT22;10600;53.096;8.802;2023-04-25T03:01:53;6.20;99.90
20881;DHT22;10600;53.096;8.802;2023-04-25T03:02:55;6.20;99.90
20881;DHT22;10600;53.096;8.802;2023-04-25T03:03:56;6.20;99.90
20881;DHT22;10600;53.096;8.802;2023-04-25T03:04:56;6.30;99.90
20881;DHT22;10600;53.096;8.802;2023-04-25T03:05:57;6.20;99.90
20881;DHT22;10600;53.096;8.802;2023-04-25T03:06:57;6.30;99.90
20881;DHT22;10600;53.096;8.802;2023-04-25T03:07:58;6.30;99.90
20881;DHT22;10600;53.096;8.802;2023-04-25T03:08:59;6.40;99.90
20881;DHT22;10600;53.096;8.802;2023-04-25T03:10:00;6.40;99.90
20881;DHT22;10600;53.096;8.802;2023-04-25T03:11:00;6.40;99.90
20881;DHT22;10600;53.096;8.802;2023-04-25T03:12:01;6.40;99.90
20881;DHT22;10600;53.096;8.802;2023-04-25T03:13:01;6.40;99.90
20881;DHT22;10600;53.096;8.802;2023-04-25T03:14:02;6.40;99.90
20881;DHT22;10600;53.096;8.802;2023-04-25T03:15:03;6.40;99.90
20881;DHT22;10600;53.096;8.802;2023-04-25T03:16:04;6.40;99.90
20881;DHT22;10600;53.096;8.802;2023-04-25T03:17:05;6.40;99.90
20881;DHT22;10600;53.096;8.802;2023-04-25T03:18:06;6.40;99.90
20881;DHT22;10600;53.096;8.802;2023-04-25T03:19:07;6.40;99.90
20881;DHT22;10600;53.096;8.802;2023-04-25T03:20:08;6.40;99.90
20881;DHT22;10600;53.096;8.802;2023-04-25T03:21:09;6.40;99.90
20881;DHT22;10600;53.096;8.802;2023-04-25T03:22:09;6.40;99.90
20881;DHT22;10600;53.096;8.802;2023-04-25T03:23:10;6.40;99.90
20881;DHT22;10600;53.096;8.802;2023-04-25T03:24:10;6.30;99.90
20881;DHT22;10600;53.096;8.802;2023-04-25T03:25:12;6.30;99.90
20881;DHT22;10600;53.096;8.802;2023-04-25T03:26:12;6.30;99.90
20881;DHT22;10600;53.096;8.802;2023-04-25T03:27:13;6.30;99.90
20881;DHT22;10600;53.096;8.802;2023-04-25T03:28:14;6.30;99.90
20881;DHT22;10600;53.096;8.802;2023-04-25T03:29:15;6.30;99.90
20881;DHT22;10600;53.096;8.802;2023-04-25T03:30:16;6.20;99.90
20881;DHT22;10600;53.096;8.802;2023-04-25T03:31:16;6.20;99.90
20881;DHT22;10600;53.096;8.802;2023-04-25T03:32:17;6.20;99.90
20881;DHT22;10600;53.096;8.802;2023-04-25T03:33:17;6.20;99.90
20881;DHT22;10600;53.096;8.802;2023-04-25T03:34:18;6.20;99.90
20881;DHT22;10600;53.096;8.802;2023-04-25T03:35:19;6.20;99.90
20881;DHT22;10600;53.096;8.802;2023-04-25T03:36:19;6.20;99.90
20881;DHT22;10600;53.096;8.802;2023-04-25T03:37:20;6.20;99.90
20881;DHT22;10600;53.096;8.802;2023-04-25T03:38:21;6.20;99.90
20881;DHT22;10600;53.096;8.802;2023-04-25T03:39:21;6.20;99.90
20881;DHT22;10600;53.096;8.802;2023-04-25T03:40:22;6.20;99.90
20881;DHT22;10600;53.096;8.802;2023-04-25T03:41:22;6.20;99.90
20881;DHT22;10600;53.096;8.802;2023-04-25T03:42:23;6.10;99.90
20881;DHT22;10600;53.096;8.802;2023-04-25T03:43:24;6.10;99.90
20881;DHT22;10600;53.096;8.802;2023-04-25T03:44:24;6.10;99.90
20881;DHT22;10600;53.096;8.802;2023-04-25T03:45:25;6.10;99.90
20881;DHT22;10600;53.096;8.802;2023-04-25T03:46:26;6.10;99.90
20881;DHT22;10600;53.096;8.802;2023-04-25T03:47:26;6.10;99.90
20881;DHT22;10600;53.096;8.802;2023-04-25T03:48:27;6.10;99.90
20881;DHT22;10600;53.096;8.802;2023-04-25T03:49:28;6.00;99.90
20881;DHT22;10600;53.096;8.802;2023-04-25T03:50:28;6.00;99.90
20881;DHT22;10600;53.096;8.802;2023-04-25T03:51:29;6.00;99.90
20881;DHT22;10600;53.096;8.802;2023-04-25T03:52:31;6.00;99.90
20881;DHT22;10600;53.096;8.802;2023-04-25T03:53:31;6.00;99.90
20881;DHT22;10600;53.096;8.802;2023-04-25T03:54:32;6.00;99.90
20881;DHT22;10600;53.096;8.802;2023-04-25T03:55:32;6.00;99.90
20881;DHT22;10600;53.096;8.802;2023-04-25T03:56:33;5.90;99.90
20881;DHT22;10600;53.096;8.802;2023-04-25T03:57:34;5.90;99.90
20881;DHT22;10600;53.096;8.802;2023-04-25T03:58:34;5.90;99.90
20881;DHT22;10600;53.096;8.802;2023-04-25T03:59:35;5.90;99.90
20881;DHT22;10600;53.096;8.802;2023-04-25T04:00:36;5.90;99.90
20881;DHT22;10600;53.096;8.802;2023-04-25T04:01:36;5.80;99.90
20881;DHT22;10600;53.096;8.802;2023-04-25T04:02:37;5.90;99.90
20881;DHT22;10600;53.096;8.802;2023-04-25T04:03:39;5.90;99.90
20881;DHT22;10600;53.096;8.802;2023-04-25T04:04:39;5.90;99.90
20881;DHT22;10600;53.096;8.802;2023-04-25T04:05:40;5.90;99.90
20881;DHT22;10600;53.096;8.802;2023-04-25T04:06:41;5.80;99.90
20881;DHT22;10600;53.096;8.802;2023-04-25T04:07:42;5.80;99.90
20881;DHT22;10600;53.096;8.802;2023-04-25T04:08:43;5.80;99.90
20881;DHT22;10600;53.096;8.802;2023-04-25T04:09:43;5.80;99.90
20881;DHT22;10600;53.096;8.802;2023-04-25T04:10:44;5.80;99.90
20881;DHT22;10600;53.096;8.802;2023-04-25T04:11:45;5.80;99.90
20881;DHT22;10600;53.096;8.802;2023-04-25T04:12:46;5.80;99.90
20881;DHT22;10600;53.096;8.802;2023-04-25T04:13:46;5.70;99.90
20881;DHT22;10600;53.096;8.802;2023-04-25T04:14:47;5.70;99.90
20881;DHT22;10600;53.096;8.802;2023-04-25T04:15:48;5.70;99.90
20881;DHT22;10600;53.096;8.802;2023-04-25T04:16:48;5.70;99.90
20881;DHT22;10600;53.096;8.802;2023-04-25T04:17:49;5.70;99.90
20881;DHT22;10600;53.096;8.802;2023-04-25T04:18:49;5.70;99.90
20881;DHT22;10600;53.096;8.802;2023-04-25T04:19:50;5.70;99.90
20881;DHT22;10600;53.096;8.802;2023-04-25T04:20:51;5.70;99.90
20881;DHT22;10600;53.096;8.802;2023-04-25T04:21:51;5.70;99.90
20881;DHT22;10600;53.096;8.802;2023-04-25T04:22:52;5.70;99.90
20881;DHT22;10600;53.096;8.802;2023-04-25T04:23:53;5.70;99.90
20881;DHT22;10600;53.096;8.802;2023-04-25T04:24:54;5.70;99.90
20881;DHT22;10600;53.096;8.802;2023-04-25T04:25:57;5.70;99.90
20881;DHT22;10600;53.096;8.802;2023-04-25T04:26:57;5.70;99.90
20881;DHT22;10600;53.096;8.802;2023-04-25T04:27:59;5.70;99.90
20881;DHT22;10600;53.096;8.802;2023-04-25T04:29:01;5.70;99.90
20881;DHT22;10600;53.096;8.802;2023-04-25T04:30:01;5.70;99.90
20881;DHT22;10600;53.096;8.802;2023-04-25T04:31:03;5.70;99.90
20881;DHT22;10600;53.096;8.802;2023-04-25T04:32:04;5.70;99.90
20881;DHT22;10600;53.096;8.802;2023-04-25T04:33:05;5.70;99.90
20881;DHT22;10600;53.096;8.802;2023-04-25T04:34:07;5.70;99.90
20881;DHT22;10600;53.096;8.802;2023-04-25T04:35:08;5.70;99.90
20881;DHT22;10600;53.096;8.802;2023-04-25T04:36:09;5.70;99.90
20881;DHT22;10600;53.096;8.802;2023-04-25T04:37:10;5.70;99.90
20881;DHT22;10600;53.096;8.802;2023-04-25T04:38:13;5.80;99.90
20881;DHT22;10600;53.096;8.802;2023-04-25T04:39:15;5.80;99.90
20881;DHT22;10600;53.096;8.802;2023-04-25T04:40:16;5.80;99.90
20881;DHT22;10600;53.096;8.802;2023-04-25T04:41:17;5.80;99.90
20881;DHT22;10600;53.096;8.802;2023-04-25T04:42:19;5.80;99.90
20881;DHT22;10600;53.096;8.802;2023-04-25T04:43:24;5.80;99.90
20881;DHT22;10600;53.096;8.802;2023-04-25T04:44:25;5.80;99.90
20881;DHT22;10600;53.096;8.802;2023-04-25T04:45:26;5.80;99.90
20881;DHT22;10600;53.096;8.802;2023-04-25T04:46:28;5.90;99.90
20881;DHT22;10600;53.096;8.802;2023-04-25T04:47:29;5.90;99.90
20881;DHT22;10600;53.096;8.802;2023-04-25T04:48:34;5.90;99.90
20881;DHT22;10600;53.096;8.802;2023-04-25T04:49:34;5.90;99.90
20881;DHT22;10600;53.096;8.802;2023-04-25T04:50:35;5.90;99.90
20881;DHT22;10600;53.096;8.802;2023-04-25T04:51:36;5.90;99.90
20881;DHT22;10600;53.096;8.802;2023-04-25T04:52:37;5.90;99.90
20881;DHT22;10600;53.096;8.802;2023-04-25T04:53:38;5.90;99.90
20881;DHT22;10600;53.096;8.802;2023-04-25T04:54:39;5.90;99.90
20881;DHT22;10600;53.096;8.802;2023-04-25T04:55:39;6.00;99.90
20881;DHT22;10600;53.096;8.802;2023-04-25T04:56:41;5.90;99.90
20881;DHT22;10600;53.096;8.802;2023-04-25T04:57:42;6.00;99.90
20881;DHT22;10600;53.096;8.802;2023-04-25T04:58:42;6.00;99.90
20881;DHT22;10600;53.096;8.802;2023-04-25T04:59:45;6.00;99.90
20881;DHT22;10600;53.096;8.802;2023-04-25T05:00:46;6.00;99.90
20881;DHT22;10600;53.096;8.802;2023-04-25T05:01:46;6.00;99.90
20881;DHT22;10600;53.096;8.802;2023-04-25T05:02:47;6.00;99.90
20881;DHT22;10600;53.096;8.802;2023-04-25T05:03:48;6.00;99.90
20881;DHT22;10600;53.096;8.802;2023-04-25T05:04:49;6.00;99.90
20881;DHT22;10600;53.096;8.802;2023-04-25T05:05:50;6.00;99.90
20881;DHT22;10600;53.096;8.802;2023-04-25T05:06:51;6.00;99.90
20881;DHT22;10600;53.096;8.802;2023-04-25T05:07:51;6.00;99.90
20881;DHT22;10600;53.096;8.802;2023-04-25T05:08:52;6.00;99.90
20881;DHT22;10600;53.096;8.802;2023-04-25T05:09:53;6.00;99.90
20881;DHT22;10600;53.096;8.802;2023-04-25T05:10:53;6.00;99.90
20881;DHT22;10600;53.096;8.802;2023-04-25T05:11:55;6.00;99.90
20881;DHT22;10600;53.096;8.802;2023-04-25T05:12:55;6.00;99.90
20881;DHT22;10600;53.096;8.802;2023-04-25T05:13:56;6.10;99.90
20881;DHT22;10600;53.096;8.802;2023-04-25T05:14:57;6.10;99.90
20881;DHT22;10600;53.096;8.802;2023-04-25T05:15:57;6.10;99.90
20881;DHT22;10600;53.096;8.802;2023-04-25T05:16:58;6.10;99.90
20881;DHT22;10600;53.096;8.802;2023-04-25T05:17:59;6.10;99.90
20881;DHT22;10600;53.096;8.802;2023-04-25T05:19:00;6.10;99.90
20881;DHT22;10600;53.096;8.802;2023-04-25T05:20:01;6.10;99.90
20881;DHT22;10600;53.096;8.802;2023-04-25T05:21:02;6.10;99.90
20881;DHT22;10600;53.096;8.802;2023-04-25T05:22:02;6.10;99.90
20881;DHT22;10600;53.096;8.802;2023-04-25T05:23:03;6.10;99.90
20881;DHT22;10600;53.096;8.802;2023-04-25T05:24:04;6.10;99.90
20881;DHT22;10600;53.096;8.802;2023-04-25T05:25:05;6.10;99.90
20881;DHT22;10600;53.096;8.802;2023-04-25T05:26:07;6.10;99.90
20881;DHT22;10600;53.096;8.802;2023-04-25T05:27:16;6.10;99.90
20881;DHT22;10600;53.096;8.802;2023-04-25T05:28:16;6.10;99.90
20881;DHT22;10600;53.096;8.802;2023-04-25T05:29:17;6.10;99.90
20881;DHT22;10600;53.096;8.802;2023-04-25T05:30:17;6.20;99.90
20881;DHT22;10600;53.096;8.802;2023-04-25T05:31:18;6.10;99.90
20881;DHT22;10600;53.096;8.802;2023-04-25T05:32:19;6.10;99.90
20881;DHT22;10600;53.096;8.802;2023-04-25T05:33:19;6.10;99.90
20881;DHT22;10600;53.096;8.802;2023-04-25T05:34:20;6.10;99.90
20881;DHT22;10600;53.096;8.802;2023-04-25T05:35:21;6.10;99.90
20881;DHT22;10600;53.096;8.802;2023-04-25T05:36:21;6.10;99.90
20881;DHT22;10600;53.096;8.802;2023-04-25T05:37:22;6.10;99.90
20881;DHT22;10600;53.096;8.802;2023-04-25T05:38:23;6.10;99.90
20881;DHT22;10600;53.096;8.802;2023-04-25T05:39:23;6.10;99.90
20881;DHT22;10600;53.096;8.802;2023-04-25T05:40:24;6.10;99.90
20881;DHT22;10600;53.096;8.802;2023-04-25T05:41:25;6.10;99.90
20881;DHT22;10600;53.096;8.802;2023-04-25T05:42:25;6.10;99.90
20881;DHT22;10600;53.096;8.802;2023-04-25T05:43:26;6.10;99.90
20881;DHT22;10600;53.096;8.802;2023-04-25T05:44:27;6.10;99.90
20881;DHT22;10600;53.096;8.802;2023-04-25T05:45:27;6.10;99.90
20881;DHT22;10600;53.096;8.802;2023-04-25T05:46:28;6.10;99.90
20881;DHT22;10600;53.096;8.802;2023-04-25T05:47:28;6.00;99.90
20881;DHT22;10600;53.096;8.802;2023-04-25T05:48:29;6.00;99.90
20881;DHT22;10600;53.096;8.802;2023-04-25T05:49:30;6.00;99.90
20881;DHT22;10600;53.096;8.802;2023-04-25T05:50:31;6.00;99.90
20881;DHT22;10600;53.096;8.802;2023-04-25T05:51:31;6.00;99.90
20881;DHT22;10600;53.096;8.802;2023-04-25T05:52:32;6.00;99.90
20881;DHT22;10600;53.096;8.802;2023-04-25T05:53:32;6.00;99.90
20881;DHT22;10600;53.096;8.802;2023-04-25T05:54:33;6.00;99.90
20881;DHT22;10600;53.096;8.802;2023-04-25T05:55:34;6.00;99.90
20881;DHT22;10600;53.096;8.802;2023-04-25T05:56:34;6.00;99.90
20881;DHT22;10600;53.096;8.802;2023-04-25T05:57:35;6.00;99.90
20881;DHT22;10600;53.096;8.802;2023-04-25T05:58:36;6.00;99.90
20881;DHT22;10600;53.096;8.802;2023-04-25T05:59:36;6.00;99.90
20881;DHT22;10600;53.096;8.802;2023-04-25T06:00:37;6.00;99.90
20881;DHT22;10600;53.096;8.802;2023-04-25T06:01:38;6.10;99.90
20881;DHT22;10600;53.096;8.802;2023-04-25T06:02:39;6.10;99.90
20881;DHT22;10600;53.096;8.802;2023-04-25T06:03:40;6.10;99.90
20881;DHT22;10600;53.096;8.802;2023-04-25T06:04:43;6.20;99.90
20881;DHT22;10600;53.096;8.802;2023-04-25T06:05:44;6.20;99.90
20881;DHT22;10600;53.096;8.802;2023-04-25T06:06:44;6.20;99.90
20881;DHT22;10600;53.096;8.802;2023-04-25T06:07:45;6.20;99.90
20881;DHT22;10600;53.096;8.802;2023-04-25T06:08:46;6.30;99.90
20881;DHT22;10600;53.096;8.802;2023-04-25T06:09:46;6.30;99.90
20881;DHT22;10600;53.096;8.802;2023-04-25T06:10:47;6.30;99.90
20881;DHT22;10600;53.096;8.802;2023-04-25T06:11:48;6.30;99.90
20881;DHT22;10600;53.096;8.802;2023-04-25T06:12:48;6.40;99.90
20881;DHT22;10600;53.096;8.802;2023-04-25T06:13:49;6.40;99.90
20881;DHT22;10600;53.096;8.802;2023-04-25T06:14:50;6.40;99.90
20881;DHT22;10600;53.096;8.802;2023-04-25T06:15:51;6.50;99.90
20881;DHT22;10600;53.096;8.802;2023-04-25T06:16:51;6.50;99.90
20881;DHT22;10600;53.096;8.802;2023-04-25T06:17:52;6.50;99.90
20881;DHT22;10600;53.096;8.802;2023-04-25T06:18:53;6.50;99.90
20881;DHT22;10600;53.096;8.802;2023-04-25T06:19:53;6.60;99.90
20881;DHT22;10600;53.096;8.802;2023-04-25T06:20:54;6.60;99.90
20881;DHT22;10600;53.096;8.802;2023-04-25T06:21:55;6.60;99.90
20881;DHT22;10600;53.096;8.802;2023-04-25T06:22:55;6.60;99.90
20881;DHT22;10600;53.096;8.802;2023-04-25T06:23:56;6.70;99.90
20881;DHT22;10600;53.096;8.802;2023-04-25T06:24:57;6.70;99.90
20881;DHT22;10600;53.096;8.802;2023-04-25T06:25:59;6.80;99.90
20881;DHT22;10600;53.096;8.802;2023-04-25T06:26:59;6.80;99.90
20881;DHT22;10600;53.096;8.802;2023-04-25T06:28:00;6.90;99.90
20881;DHT22;10600;53.096;8.802;2023-04-25T06:29:01;6.90;99.90
20881;DHT22;10600;53.096;8.802;2023-04-25T06:30:02;6.90;99.90
20881;DHT22;10600;53.096;8.802;2023-04-25T06:31:03;7.00;99.90